Latest Coastal Weather Observations for Holmes Reef

IDQ60701

Issued at 8:22 am EST Sunday 2 October 2016 (issued every 10 minutes, with the page automatically refreshed every 10 minutes)

About coastal observations | Map of coastal stations | Coastal observations for QLD | Marine services | Other Formats
Station Details ID: 200732 Name: HOLMES REEF Lat: -16.47 Lon: 147.87 Height: 1.9 m
Data from the previous 72 hours. | See also: Recent months at Holmes Reef
Date/Time
EST
Temp
°C
Wind Pressure Rain since
9am
mm
Weather Cloud Vis
km
Sea
Height
m
Swell
Dir  Spd
kts
Gust
kts
hPa Trend Height
m
Period
s
Dir
02/08:15am 26.4 E 10 11 1015.2 - - - - - - - - -
02/08:00am 26.5 E 10 11 1015.5 - - - - - - - - -
02/07:30am 26.3 E 10 13 1015.1 - - - - - - - - -
02/07:15am 26.1 E 10 - 1014.6 - - - - - - - - -
02/07:00am 26.4 E 10 12 1014.7 - - - - - - - - -
02/06:30am 26.2 E 11 13 1014.0 - - - - - - - - -
02/06:15am 26.0 E 11 - 1013.5 - - - - - - - - -
02/06:00am 26.1 E 9 11 1013.6 - - - - - - - - -
02/05:30am 26.0 E 11 13 1013.2 - - - - - - - - -
02/05:15am 25.8 E 12 - 1012.7 - - - - - - - - -
02/05:00am 25.9 E 1 3 1012.7 - - - - - - - - -
02/04:30am 25.7 E 2 3 1012.2 - - - - - - - - -
02/04:15am 25.8 E 2 - 1011.7 - - - - - - - - -
02/04:00am 25.8 E 2 3 1011.9 - - - - - - - - -
02/03:30am 25.9 E 2 3 1011.8 - - - - - - - - -
02/03:15am 25.9 E 2 - 1011.5 - - - - - - - - -
02/03:00am 25.8 E 2 3 1011.8 - - - - - - - - -
02/02:30am 26.1 E 2 3 1011.9 - - - - - - - - -
02/02:15am 25.9 E 2 - 1011.7 - - - - - - - - -
02/02:00am 25.9 E 2 3 1012.1 - - - - - - - - -
02/01:30am 26.0 E 2 3 1012.3 - - - - - - - - -
02/01:15am 26.1 E 2 - 1012.1 - - - - - - - - -
02/01:00am 26.0 E 2 3 1012.5 - - - - - - - - -
02/12:30am 26.1 E 2 3 1012.7 - - - - - - - - -
02/12:15am 26.1 E 1 - 1012.6 - - - - - - - - -
02/12:00am 26.1 E 2 3 1013.0 - - - - - - - - -
 
Date/Time
EST
Temp
°C
Wind Pressure Rain since
9am
mm
Weather Cloud Vis
km
Sea
Height
m
Swell
Dir  Spd
kts
Gust
kts
hPa Trend Height
m
Period
s
Dir
01/11:30pm 26.2 E 2 3 1013.2 - - - - - - - - -
01/11:15pm 26.2 ENE 1 - 1013.1 - - - - - - - - -
01/11:00pm 26.2 E 1 3 1013.4 - - - - - - - - -
01/10:30pm 26.2 ENE 1 2 1013.6 - - - - - - - - -
01/10:15pm 26.2 ENE 1 - 1013.4 - - - - - - - - -
01/10:00pm 26.1 ENE 1 3 1013.7 - - - - - - - - -
01/09:30pm 26.2 ENE 1 3 1013.8 - - - - - - - - -
01/09:15pm 26.2 E 1 - 1013.4 - - - - - - - - -
01/09:00pm 26.2 CALM 0 3 1013.8 - - - - - - - - -
01/08:30pm 26.3 ENE 1 2 1013.5 - - - - - - - - -
01/08:15pm 26.2 CALM 0 - 1013.2 - - - - - - - - -
01/08:00pm 26.3 CALM 0 2 1013.4 - - - - - - - - -
01/07:30pm 26.2 CALM 0 2 1013.1 - - - - - - - - -
01/07:15pm 26.4 CALM 0 - 1012.7 - - - - - - - - -
01/07:00pm 26.4 CALM 0 1 1012.9 - - - - - - - - -
01/06:30pm 26.4 CALM 0 2 1012.8 - - - - - - - - -
01/06:15pm 26.4 CALM 0 - 1012.3 - - - - - - - - -
01/06:00pm 26.5 CALM 0 2 1012.3 - - - - - - - - -
01/05:30pm 26.3 CALM 0 1 1012.2 - - - - - - - - -
01/05:15pm 26.4 NE 3 - 1011.8 - - - - - - - - -
01/05:00pm 26.4 NE 6 9 1012.1 - - - - - - - - -
01/04:30pm 26.5 NE 7 9 1012.0 - - - - - - - - -
01/04:15pm 26.6 NE 8 - 1011.7 - - - - - - - - -
01/04:00pm 26.5 NE 8 9 1011.7 - - - - - - - - -
01/03:30pm 26.5 NE 8 9 1011.7 - - - - - - - - -
01/03:15pm 26.6 NE 8 - 1011.6 - - - - - - - - -
01/03:00pm 26.7 NE 10 12 1011.9 - - - - - - - - -
01/02:30pm 26.4 NE 11 12 1011.9 - - - - - - - - -
01/02:15pm 26.5 NE 9 - 1011.9 - - - - - - - - -
01/02:00pm 26.5 NE 11 12 1012.1 - - - - - - - - -
01/01:30pm 26.6 NE 11 12 1012.3 - - - - - - - - -
01/01:15pm 26.7 NE 11 - 1012.3 - - - - - - - - -
01/01:00pm 26.6 NE 9 11 1012.9 - - - - - - - - -
01/12:30pm 26.4 NE 11 12 1013.1 - - - - - - - - -
01/12:15pm 26.3 NE 11 - 1013.1 - - - - - - - - -
01/12:00pm 26.4 NE 11 13 1013.5 - - - - - - - - -
01/11:30am 26.3 NE 13 15 1013.5 - - - - - - - - -
01/11:15am 26.3 NE 13 - 1013.3 - - - - - - - - -
01/11:00am 26.4 NE 10 12 1014.0 - - - - - - - - -
01/10:30am 26.7 NE 9 11 1014.4 - - - - - - - - -
01/10:15am 26.7 NE 9 - 1014.3 - - - - - - - - -
01/10:00am 26.5 ENE 8 9 1014.7 - - - - - - - - -
01/09:30am 26.6 ENE 7 8 1015.0 - - - - - - - - -
01/09:15am 26.6 ENE 8 - 1014.7 - - - - - - - - -
01/09:00am 26.7 NE 8 8 1015.0 - - - - - - - - -
01/08:30am 26.8 ENE 6 7 1015.0 - - - - - - - - -
01/08:15am 26.5 NE 6 - 1014.6 - - - - - - - - -
01/08:00am 26.5 NE 5 6 1014.8 - - - - - - - - -
01/07:30am 26.3 NE 4 5 1014.6 - - - - - - - - -
01/07:15am 26.3 NE 4 - 1014.1 - - - - - - - - -
01/07:00am 26.1 NE 4 5 1014.1 - - - - - - - - -
01/06:30am 26.0 NE 3 5 1013.7 - - - - - - - - -
01/06:15am 25.9 NE 4 - 1013.0 - - - - - - - - -
01/06:00am 25.9 NE 4 5 1013.1 - - - - - - - - -
01/05:30am 26.0 NE 2 6 1012.7 - - - - - - - - -
01/05:15am 25.9 CALM 0 - 1012.3 - - - - - - - - -
01/05:00am 25.8 CALM 0 3 1012.3 - - - - - - - - -
01/04:30am 25.9 CALM 0 3 1011.8 - - - - - - - - -
01/04:15am 25.8 CALM 0 - 1011.4 - - - - - - - - -
01/04:00am 25.7 CALM 0 2 1011.5 - - - - - - - - -
01/03:30am 25.9 CALM 0 1 1011.0 - - - - - - - - -
01/03:15am 25.8 CALM 0 - 1010.6 - - - - - - - - -
01/03:00am 25.8 CALM 0 5 1010.8 - - - - - - - - -
01/02:30am 25.9 CALM 0 2 1010.8 - - - - - - - - -
01/02:15am 26.0 CALM 0 - 1010.5 - - - - - - - - -
01/02:00am 25.9 CALM 0 2 1010.8 - - - - - - - - -
01/01:30am 26.0 CALM 0 1 1011.1 - - - - - - - - -
01/01:15am 26.1 CALM 0 - 1010.8 - - - - - - - - -
01/01:00am 26.0 CALM 0 1 1011.3 - - - - - - - - -
01/12:30am 25.9 CALM 0 2 1011.5 - - - - - - - - -
01/12:15am 26.1 CALM 0 - 1011.3 - - - - - - - - -
01/12:00am 26.1 NE 1 2 1011.5 - - - - - - - - -
 
Date/Time
EST
Temp
°C
Wind Pressure Rain since
9am
mm
Weather Cloud Vis
km
Sea
Height
m
Swell
Dir  Spd
kts
Gust
kts
hPa Trend Height
m
Period
s
Dir
30/11:30pm 26.1 NE 1 2 1011.7 - - - - - - - - -
30/11:15pm 26.1 NE 1 - 1011.4 - - - - - - - - -
30/11:00pm 26.1 NE 1 3 1011.7 - - - - - - - - -
30/10:30pm 26.2 NE 1 3 1011.7 - - - - - - - - -
30/10:15pm 26.1 NE 1 - 1011.4 - - - - - - - - -
30/10:00pm 26.2 NE 1 3 1011.8 - - - - - - - - -
30/09:30pm 26.2 NE 1 2 1011.8 - - - - - - - - -
30/09:15pm 26.2 NE 1 - 1011.3 - - - - - - - - -
30/09:00pm 26.2 CALM 0 2 1011.6 - - - - - - - - -
30/08:30pm 26.2 CALM 0 2 1011.4 - - - - - - - - -
30/08:15pm 26.0 CALM 0 - 1010.9 - - - - - - - - -
30/08:00pm 26.2 CALM 0 2 1011.0 - - - - - - - - -
30/07:30pm 26.2 CALM 0 2 1010.7 - - - - - - - - -
30/07:15pm 26.1 CALM 0 - 1010.1 - - - - - - - - -
30/07:00pm 26.0 CALM 0 2 1010.1 - - - - - - - - -
30/06:30pm 26.1 CALM 0 2 1009.7 - - - - - - - - -
30/06:15pm 26.1 CALM 0 - 1009.4 - - - - - - - - -
30/06:00pm 26.2 CALM 0 2 1009.5 - - - - - - - - -
30/05:30pm 26.3 CALM 0 3 1009.5 - - - - - - - - -
30/05:15pm 26.4 NNE 5 - 1009.1 - - - - - - - - -
30/05:00pm 26.5 NNE 7 8 1009.2 - - - - - - - - -
30/04:30pm 26.5 N 8 9 1009.0 - - - - - - - - -
30/04:15pm 26.4 N 8 - 1008.7 - - - - - - - - -
30/04:00pm 26.4 N 9 10 1008.9 - - - - - - - - -
30/03:30pm 26.6 N 8 9 1009.0 - - - - - - - - -
30/03:15pm 26.8 N 8 - 1008.7 - - - - - - - - -
30/03:00pm 26.6 N 7 9 1009.1 - - - - - - - - -
30/02:30pm 26.6 N 8 10 1009.4 - - - - - - - - -
30/02:15pm 26.4 N 10 - 1009.2 - - - - - - - - -
30/02:00pm 26.6 N 11 13 1009.4 - - - - - - - - -
30/01:30pm 26.5 N 11 13 1009.8 - - - - - - - - -
30/01:16pm 26.3 N 11 - 1009.6 - - - - - - - - -
30/01:00pm 26.4 N 11 12 1010.3 - - - - - - - - -
30/12:30pm 26.2 N 11 12 1010.6 - - - - - - - - -
30/12:15pm 26.2 N 11 - 1010.5 - - - - - - - - -
30/12:00pm 26.4 N 11 12 1011.0 - - - - - - - - -
30/11:30am 26.2 N 11 13 1011.4 - - - - - - - - -
30/11:15am 26.1 N 12 - 1011.2 - - - - - - - - -
30/11:00am 26.1 N 12 13 1011.7 - - - - - - - - -
30/10:30am 26.1 N 11 12 1011.8 - - - - - - - - -
30/10:15am 26.0 N 12 - 1011.3 - - - - - - - - -
30/10:00am 26.2 N 11 13 1011.7 - - - - - - - - -
30/09:30am 26.0 N 11 13 1011.8 - - - - - - - - -
30/09:15am 26.2 N 10 - 1011.7 - - - - - - - - -
30/09:00am 26.1 N 10 12 1012.0 - - - - - - - - -
30/08:30am 26.0 N 10 11 1011.9 - - - - - - - - -
30/08:15am 26.0 N 10 - 1011.4 - - - - - - - - -
30/08:00am 26.0 N 10 11 1011.5 - - - - - - - - -
30/07:30am 25.9 N 9 11 1011.1 - - - - - - - - -
30/07:15am 25.9 N 9 - 1010.8 - - - - - - - - -
30/07:00am 26.0 N 9 10 1010.9 - - - - - - - - -
30/06:30am 25.7 N 11 11 1010.6 - - - - - - - - -
30/06:15am 25.6 N 9 - 1010.2 - - - - - - - - -
30/06:00am 25.8 N 9 10 1010.4 - - - - - - - - -
30/05:30am 25.6 N 9 11 1010.3 - - - - - - - - -
30/05:15am 25.7 N 9 - 1009.7 - - - - - - - - -
30/05:00am 25.7 NNW 8 9 1010.1 - - - - - - - - -
30/04:30am 25.6 NNW 8 9 1009.8 - - - - - - - - -
30/04:15am 25.6 N 8 - 1009.3 - - - - - - - - -
30/04:00am 25.6 NNW 8 10 1009.7 - - - - - - - - -
30/03:30am 25.6 N 9 11 1009.6 - - - - - - - - -
30/03:15am 25.6 N 10 - 1009.4 - - - - - - - - -
30/03:00am 25.8 N 9 10 1009.7 - - - - - - - - -
30/02:30am 25.7 N 9 11 1010.0 - - - - - - - - -
30/02:15am 25.7 NNW 9 - 1009.9 - - - - - - - - -
30/02:00am 25.7 N 11 12 1010.1 - - - - - - - - -
30/01:30am 25.6 N 10 11 1010.3 - - - - - - - - -
30/01:15am 25.7 NNW 9 - 1010.2 - - - - - - - - -
30/01:00am 25.7 N 10 12 1010.6 - - - - - - - - -
30/12:30am 25.8 N 13 15 1010.5 - - - - - - - - -
30/12:15am 25.7 N 14 - 1010.2 - - - - - - - - -
30/12:00am 25.8 N 15 16 1010.5 - - - - - - - - -
 
Date/Time
EST
Temp
°C
Wind Pressure Rain since
9am
mm
Weather Cloud Vis
km
Sea
Height
m
Swell
Dir  Spd
kts
Gust
kts
hPa Trend Height
m
Period
s
Dir
29/11:30pm 25.9 N 16 18 1010.6 - - - - - - - - -
29/11:15pm 26.1 N 16 - 1010.4 - - - - - - - - -
29/11:00pm 26.2 N 16 18 1010.8 - - - - - - - - -
29/10:30pm 26.1 N 15 17 1011.2 - - - - - - - - -
29/10:15pm 26.1 N 15 - 1010.8 - - - - - - - - -
29/10:00pm 26.1 N 17 20 1010.8 - - - - - - - - -
29/09:30pm 26.1 NNE 20 23 1010.5 - - - - - - - - -
29/09:15pm 26.0 NNE 20 - 1010.0 - - - - - - - - -
29/09:00pm 26.0 NNE 20 23 1010.2 - - - - - - - - -
29/08:30pm 25.9 NNE 17 20 1010.1 - - - - - - - - -
29/08:15pm 25.9 NNE 16 - 1009.8 - - - - - - - - -
29/08:00pm 25.9 NNE 15 18 1010.0 - - - - - - - - -
29/07:30pm 26.1 NNE 13 14 1010.2 - - - - - - - - -
29/07:15pm 25.9 NNE 13 - 1009.6 - - - - - - - - -
29/07:00pm 26.1 NNE 13 15 1009.6 - - - - - - - - -
29/06:30pm 25.8 NNE 13 15 1009.1 - - - - - - - - -
29/06:15pm 26.1 NNE 14 - 1008.6 - - - - - - - - -
29/06:00pm 26.1 N 14 15 1008.7 - - - - - - - - -
29/05:30pm 26.1 N 11 14 1008.7 - - - - - - - - -
29/05:15pm 26.0 N 13 - 1008.2 - - - - - - - - -
29/05:00pm 26.0 N 12 14 1008.2 - - - - - - - - -
29/04:30pm 26.2 N 11 13 1008.3 - - - - - - - - -
29/04:15pm 26.0 N 11 - 1008.0 - - - - - - - - -
29/04:00pm 26.1 N 10 11 1008.4 - - - - - - - - -
29/03:30pm 26.3 N 8 9 1008.7 - - - - - - - - -
29/03:15pm 26.2 N 8 - 1008.4 - - - - - - - - -
29/03:00pm 26.4 N 6 7 1008.9 - - - - - - - - -
29/02:30pm 26.4 NNE 6 7 1009.0 - - - - - - - - -
29/02:15pm 26.3 NNE 5 - 1008.9 - - - - - - - - -
29/02:00pm 26.4 NNE 8 10 1009.1 - - - - - - - - -
29/01:30pm 26.2 NNE 8 9 1009.5 - - - - - - - - -
29/01:15pm 26.1 NNE 7 - 1009.6 - - - - - - - - -
29/01:00pm 26.1 NNE 7 9 1010.1 - - - - - - - - -
29/12:30pm 25.9 NNE 7 9 1010.5 - - - - - - - - -
29/12:15pm 26.2 NNE 6 - 1010.7 - - - - - - - - -
29/12:00pm 26.0 NE 6 7 1011.1 - - - - - - - - -
29/11:30am 25.9 NNE 7 10 1011.5 - - - - - - - - -
29/11:15am 25.9 NNE 9 - 1011.2 - - - - - - - - -
29/11:00am 26.0 NNE 8 9 1011.8 - - - - - - - - -
29/10:30am 26.0 NE 8 10 1012.1 - - - - - - - - -
29/10:15am 26.3 NE 8 - 1011.8 - - - - - - - - -
29/10:00am 26.0 NNE 9 11 1012.2 - - - - - - - - -
29/09:30am 25.8 NNE 12 13 1012.0 - - - - - - - - -
29/09:15am 25.7 NE 11 - 1011.9 - - - - - - - - -
29/09:00am 25.7 NNE 13 15 1011.8 - - - - - - - - -
29/08:30am 26.0 NE 12 14 1011.9 - - - - - - - - -

Other Formats:

Comma delimited format used in spreadsheet applications
http://www.bom.gov.au/fwo/IDQ60701/IDQ60701.94289.axf

JavaScript Object Notation format (JSON) in row-major order
http://www.bom.gov.au/fwo/IDQ60701/IDQ60701.94289.json